Terminal Aerodrome Forecast
Issued by NWS

Home | Current Version | Previous Version | Text Only | Print | Product List | Glossary On
Versions: 1 2 3 4 5 6 7 8 9 10 11 12 13 14 15 16 17 18 19 20 21 22 23 24
884
FTUS41 KBUF 182144 AAA
TAFIAG
TAF AMD
KIAG 182144Z 1822/1918 17009KT 4SM -RA OVC013
     FM190100 17007KT 6SM -RA OVC007
     FM190400 25010G19KT 6SM -RA BKN012
     FM190500 29013G23KT 6SM -RA BKN012
     FM191100 31019G33KT P6SM OVC020=

USA.gov is the U.S. government's official web portal to all federal, state and local government web resources and services.